sensor_id;sensor_type;location;lat;lon;timestamp;P1;durP1;ratioP1;P2;durP2;ratioP2
13408;SDS011;6775;49.574;11.170;2023-07-30T00:00:12;2.10;;;1.73;;
13408;SDS011;6775;49.574;11.170;2023-07-30T00:02:40;2.07;;;1.87;;
13408;SDS011;6775;49.574;11.170;2023-07-30T00:05:08;1.70;;;1.30;;
13408;SDS011;6775;49.574;11.170;2023-07-30T00:07:38;1.60;;;1.40;;
13408;SDS011;6775;49.574;11.170;2023-07-30T00:10:06;1.73;;;1.63;;
13408;SDS011;6775;49.574;11.170;2023-07-30T00:12:35;1.60;;;1.50;;
13408;SDS011;6775;49.574;11.170;2023-07-30T00:15:03;2.20;;;1.60;;
13408;SDS011;6775;49.574;11.170;2023-07-30T00:17:32;2.70;;;1.93;;
13408;SDS011;6775;49.574;11.170;2023-07-30T00:20:00;3.07;;;1.60;;
13408;SDS011;6775;49.574;11.170;2023-07-30T00:22:29;1.87;;;1.70;;
13408;SDS011;6775;49.574;11.170;2023-07-30T00:24:59;2.27;;;1.60;;
13408;SDS011;6775;49.574;11.170;2023-07-30T00:27:27;1.97;;;1.50;;
13408;SDS011;6775;49.574;11.170;2023-07-30T00:29:55;1.67;;;1.40;;
13408;SDS011;6775;49.574;11.170;2023-07-30T00:32:23;1.83;;;1.60;;
13408;SDS011;6775;49.574;11.170;2023-07-30T00:34:51;1.73;;;1.23;;
13408;SDS011;6775;49.574;11.170;2023-07-30T00:37:19;1.60;;;1.50;;
13408;SDS011;6775;49.574;11.170;2023-07-30T00:39:47;2.50;;;1.50;;
13408;SDS011;6775;49.574;11.170;2023-07-30T00:42:16;1.43;;;1.33;;
13408;SDS011;6775;49.574;11.170;2023-07-30T00:44:44;2.07;;;1.87;;
13408;SDS011;6775;49.574;11.170;2023-07-30T00:47:12;1.67;;;1.57;;
13408;SDS011;6775;49.574;11.170;2023-07-30T00:49:40;1.60;;;1.50;;
13408;SDS011;6775;49.574;11.170;2023-07-30T00:52:08;1.97;;;1.43;;
13408;SDS011;6775;49.574;11.170;2023-07-30T00:54:38;1.57;;;1.47;;
13408;SDS011;6775;49.574;11.170;2023-07-30T00:57:07;1.80;;;1.50;;
13408;SDS011;6775;49.574;11.170;2023-07-30T00:59:38;1.67;;;1.43;;
13408;SDS011;6775;49.574;11.170;2023-07-30T01:02:06;1.97;;;1.50;;
13408;SDS011;6775;49.574;11.170;2023-07-30T01:04:34;1.30;;;1.20;;
13408;SDS011;6775;49.574;11.170;2023-07-30T01:07:05;2.37;;;1.73;;
13408;SDS011;6775;49.574;11.170;2023-07-30T01:09:33;1.40;;;1.30;;
13408;SDS011;6775;49.574;11.170;2023-07-30T01:12:02;1.63;;;1.53;;
13408;SDS011;6775;49.574;11.170;2023-07-30T01:14:33;1.67;;;1.57;;
13408;SDS011;6775;49.574;11.170;2023-07-30T01:17:05;2.73;;;1.53;;
13408;SDS011;6775;49.574;11.170;2023-07-30T01:19:33;1.53;;;1.43;;
13408;SDS011;6775;49.574;11.170;2023-07-30T01:22:03;1.40;;;1.30;;
13408;SDS011;6775;49.574;11.170;2023-07-30T01:24:31;1.90;;;1.70;;
13408;SDS011;6775;49.574;11.170;2023-07-30T01:27:01;1.70;;;1.60;;
13408;SDS011;6775;49.574;11.170;2023-07-30T01:29:37;2.30;;;1.77;;
13408;SDS011;6775;49.574;11.170;2023-07-30T01:32:10;1.87;;;1.70;;
13408;SDS011;6775;49.574;11.170;2023-07-30T01:34:40;2.27;;;1.80;;
13408;SDS011;6775;49.574;11.170;2023-07-30T01:37:15;2.30;;;1.77;;
13408;SDS011;6775;49.574;11.170;2023-07-30T01:39:45;1.70;;;1.60;;
13408;SDS011;6775;49.574;11.170;2023-07-30T01:42:15;1.87;;;1.67;;
13408;SDS011;6775;49.574;11.170;2023-07-30T01:44:44;2.00;;;1.87;;
13408;SDS011;6775;49.574;11.170;2023-07-30T01:47:12;1.90;;;1.60;;
13408;SDS011;6775;49.574;11.170;2023-07-30T01:49:40;1.80;;;1.60;;
13408;SDS011;6775;49.574;11.170;2023-07-30T01:52:08;1.60;;;1.50;;
13408;SDS011;6775;49.574;11.170;2023-07-30T01:54:37;2.90;;;1.70;;
13408;SDS011;6775;49.574;11.170;2023-07-30T01:57:05;1.67;;;1.57;;
13408;SDS011;6775;49.574;11.170;2023-07-30T01:59:33;2.20;;;2.00;;
13408;SDS011;6775;49.574;11.170;2023-07-30T02:02:01;2.20;;;1.80;;
13408;SDS011;6775;49.574;11.170;2023-07-30T02:04:30;2.77;;;1.80;;
13408;SDS011;6775;49.574;11.170;2023-07-30T02:06:58;2.77;;;1.70;;
13408;SDS011;6775;49.574;11.170;2023-07-30T02:09:26;3.00;;;1.70;;
13408;SDS011;6775;49.574;11.170;2023-07-30T02:11:56;2.23;;;1.63;;
13408;SDS011;6775;49.574;11.170;2023-07-30T02:14:24;1.60;;;1.40;;
13408;SDS011;6775;49.574;11.170;2023-07-30T02:16:52;1.97;;;1.60;;
13408;SDS011;6775;49.574;11.170;2023-07-30T02:19:20;2.10;;;1.90;;
13408;SDS011;6775;49.574;11.170;2023-07-30T02:21:48;2.87;;;2.07;;
13408;SDS011;6775;49.574;11.170;2023-07-30T02:24:16;2.23;;;1.83;;
13408;SDS011;6775;49.574;11.170;2023-07-30T02:26:44;1.90;;;1.70;;
13408;SDS011;6775;49.574;11.170;2023-07-30T02:29:13;1.60;;;1.50;;
13408;SDS011;6775;49.574;11.170;2023-07-30T02:31:41;2.20;;;2.00;;
13408;SDS011;6775;49.574;11.170;2023-07-30T02:34:09;2.33;;;1.80;;
13408;SDS011;6775;49.574;11.170;2023-07-30T02:36:37;2.43;;;2.20;;
13408;SDS011;6775;49.574;11.170;2023-07-30T02:39:05;2.20;;;2.00;;
13408;SDS011;6775;49.574;11.170;2023-07-30T02:41:33;1.87;;;1.70;;
13408;SDS011;6775;49.574;11.170;2023-07-30T02:44:02;2.33;;;2.03;;
13408;SDS011;6775;49.574;11.170;2023-07-30T02:46:31;2.00;;;1.80;;
13408;SDS011;6775;49.574;11.170;2023-07-30T02:48:59;2.67;;;2.10;;
13408;SDS011;6775;49.574;11.170;2023-07-30T02:51:28;2.67;;;2.03;;
13408;SDS011;6775;49.574;11.170;2023-07-30T02:53:56;2.03;;;1.90;;
13408;SDS011;6775;49.574;11.170;2023-07-30T02:56:26;2.00;;;1.80;;
13408;SDS011;6775;49.574;11.170;2023-07-30T02:58:54;3.37;;;2.20;;
13408;SDS011;6775;49.574;11.170;2023-07-30T03:01:22;2.90;;;2.07;;
13408;SDS011;6775;49.574;11.170;2023-07-30T03:03:51;2.73;;;2.50;;
13408;SDS011;6775;49.574;11.170;2023-07-30T03:06:19;2.87;;;2.10;;
13408;SDS011;6775;49.574;11.170;2023-07-30T03:08:47;2.23;;;2.03;;
13408;SDS011;6775;49.574;11.170;2023-07-30T03:11:15;3.23;;;2.30;;
13408;SDS011;6775;49.574;11.170;2023-07-30T03:13:44;3.10;;;2.30;;
13408;SDS011;6775;49.574;11.170;2023-07-30T03:16:12;3.10;;;2.30;;
13408;SDS011;6775;49.574;11.170;2023-07-30T03:18:40;2.13;;;1.97;;
13408;SDS011;6775;49.574;11.170;2023-07-30T03:21:09;2.57;;;2.30;;
13408;SDS011;6775;49.574;11.170;2023-07-30T03:23:37;3.17;;;2.27;;
13408;SDS011;6775;49.574;11.170;2023-07-30T03:26:07;2.40;;;2.20;;
13408;SDS011;6775;49.574;11.170;2023-07-30T03:28:35;2.43;;;2.23;;
13408;SDS011;6775;49.574;11.170;2023-07-30T03:31:06;2.80;;;2.20;;
13408;SDS011;6775;49.574;11.170;2023-07-30T03:33:34;3.37;;;2.10;;
13408;SDS011;6775;49.574;11.170;2023-07-30T03:36:02;3.67;;;2.83;;
13408;SDS011;6775;49.574;11.170;2023-07-30T03:38:32;2.87;;;2.67;;
13408;SDS011;6775;49.574;11.170;2023-07-30T03:41:00;2.53;;;2.33;;
13408;SDS011;6775;49.574;11.170;2023-07-30T03:43:28;2.60;;;2.40;;
13408;SDS011;6775;49.574;11.170;2023-07-30T03:45:56;2.60;;;2.17;;
13408;SDS011;6775;49.574;11.170;2023-07-30T03:48:24;2.13;;;1.93;;
13408;SDS011;6775;49.574;11.170;2023-07-30T03:50:52;2.50;;;2.17;;
13408;SDS011;6775;49.574;11.170;2023-07-30T03:53:20;2.47;;;2.27;;
13408;SDS011;6775;49.574;11.170;2023-07-30T03:55:50;3.80;;;2.47;;
13408;SDS011;6775;49.574;11.170;2023-07-30T03:58:18;2.77;;;2.57;;
13408;SDS011;6775;49.574;11.170;2023-07-30T04:00:46;2.73;;;2.27;;
13408;SDS011;6775;49.574;11.170;2023-07-30T04:03:14;3.53;;;2.40;;
13408;SDS011;6775;49.574;11.170;2023-07-30T04:05:43;3.70;;;3.03;;
13408;SDS011;6775;49.574;11.170;2023-07-30T04:08:10;3.30;;;2.70;;
13408;SDS011;6775;49.574;11.170;2023-07-30T04:10:39;2.63;;;2.43;;
13408;SDS011;6775;49.574;11.170;2023-07-30T04:13:08;2.40;;;2.20;;
13408;SDS011;6775;49.574;11.170;2023-07-30T04:15:36;3.00;;;2.47;;
13408;SDS011;6775;49.574;11.170;2023-07-30T04:18:04;3.00;;;2.70;;
13408;SDS011;6775;49.574;11.170;2023-07-30T04:20:32;4.00;;;2.87;;
13408;SDS011;6775;49.574;11.170;2023-07-30T04:23:00;2.67;;;2.47;;
13408;SDS011;6775;49.574;11.170;2023-07-30T04:25:28;3.30;;;2.97;;
13408;SDS011;6775;49.574;11.170;2023-07-30T04:27:56;3.33;;;2.63;;
13408;SDS011;6775;49.574;11.170;2023-07-30T04:30:26;2.93;;;2.53;;
13408;SDS011;6775;49.574;11.170;2023-07-30T04:32:54;2.40;;;2.20;;
13408;SDS011;6775;49.574;11.170;2023-07-30T04:35:22;4.60;;;3.10;;
13408;SDS011;6775;49.574;11.170;2023-07-30T04:37:50;3.07;;;2.77;;
13408;SDS011;6775;49.574;11.170;2023-07-30T04:40:18;4.03;;;3.30;;
13408;SDS011;6775;49.574;11.170;2023-07-30T04:42:46;3.63;;;3.13;;
13408;SDS011;6775;49.574;11.170;2023-07-30T04:45:14;3.10;;;2.80;;
13408;SDS011;6775;49.574;11.170;2023-07-30T04:47:43;3.40;;;3.10;;
13408;SDS011;6775;49.574;11.170;2023-07-30T04:50:11;3.83;;;3.40;;
13408;SDS011;6775;49.574;11.170;2023-07-30T04:52:39;3.50;;;2.90;;
13408;SDS011;6775;49.574;11.170;2023-07-30T04:55:08;4.03;;;3.30;;
13408;SDS011;6775;49.574;11.170;2023-07-30T04:57:36;3.10;;;2.80;;
13408;SDS011;6775;49.574;11.170;2023-07-30T05:00:04;3.47;;;2.83;;
13408;SDS011;6775;49.574;11.170;2023-07-30T05:02:34;3.67;;;3.20;;
13408;SDS011;6775;49.574;11.170;2023-07-30T05:05:04;4.47;;;3.50;;
13408;SDS011;6775;49.574;11.170;2023-07-30T05:07:33;3.60;;;2.93;;
13408;SDS011;6775;49.574;11.170;2023-07-30T05:10:01;2.90;;;2.50;;
13408;SDS011;6775;49.574;11.170;2023-07-30T05:12:32;4.17;;;3.23;;
13408;SDS011;6775;49.574;11.170;2023-07-30T05:15:00;4.90;;;3.33;;
13408;SDS011;6775;49.574;11.170;2023-07-30T05:17:28;3.67;;;3.00;;
13408;SDS011;6775;49.574;11.170;2023-07-30T05:19:56;3.40;;;2.87;;
13408;SDS011;6775;49.574;11.170;2023-07-30T05:22:25;4.07;;;3.03;;
13408;SDS011;6775;49.574;11.170;2023-07-30T05:24:54;4.33;;;3.80;;
13408;SDS011;6775;49.574;11.170;2023-07-30T05:27:21;2.67;;;2.47;;
13408;SDS011;6775;49.574;11.170;2023-07-30T05:29:50;5.03;;;2.90;;
13408;SDS011;6775;49.574;11.170;2023-07-30T05:32:18;3.13;;;2.60;;
13408;SDS011;6775;49.574;11.170;2023-07-30T05:34:46;3.07;;;2.77;;
13408;SDS011;6775;49.574;11.170;2023-07-30T05:37:14;3.30;;;2.70;;
13408;SDS011;6775;49.574;11.170;2023-07-30T05:39:43;3.23;;;2.87;;
13408;SDS011;6775;49.574;11.170;2023-07-30T05:42:11;2.63;;;2.43;;
13408;SDS011;6775;49.574;11.170;2023-07-30T05:44:39;3.73;;;3.17;;
13408;SDS011;6775;49.574;11.170;2023-07-30T05:47:07;2.77;;;2.57;;
13408;SDS011;6775;49.574;11.170;2023-07-30T05:49:35;4.37;;;2.87;;
13408;SDS011;6775;49.574;11.170;2023-07-30T05:52:03;3.70;;;2.90;;
13408;SDS011;6775;49.574;11.170;2023-07-30T05:54:32;4.90;;;2.73;;
13408;SDS011;6775;49.574;11.170;2023-07-30T05:57:02;2.50;;;2.30;;
13408;SDS011;6775;49.574;11.170;2023-07-30T05:59:31;3.70;;;2.67;;
13408;SDS011;6775;49.574;11.170;2023-07-30T06:02:01;2.67;;;2.43;;
13408;SDS011;6775;49.574;11.170;2023-07-30T06:04:30;3.50;;;2.97;;
13408;SDS011;6775;49.574;11.170;2023-07-30T06:06:59;2.70;;;2.50;;
13408;SDS011;6775;49.574;11.170;2023-07-30T06:09:28;3.40;;;2.30;;
13408;SDS011;6775;49.574;11.170;2023-07-30T06:11:56;2.60;;;2.40;;
13408;SDS011;6775;49.574;11.170;2023-07-30T06:14:26;3.83;;;3.40;;
13408;SDS011;6775;49.574;11.170;2023-07-30T06:16:54;2.80;;;2.53;;
13408;SDS011;6775;49.574;11.170;2023-07-30T06:19:23;3.73;;;3.03;;
13408;SDS011;6775;49.574;11.170;2023-07-30T06:21:51;3.03;;;2.63;;
13408;SDS011;6775;49.574;11.170;2023-07-30T06:24:18;2.83;;;2.40;;
13408;SDS011;6775;49.574;11.170;2023-07-30T06:26:47;3.23;;;2.30;;
13408;SDS011;6775;49.574;11.170;2023-07-30T06:29:15;4.63;;;2.13;;
13408;SDS011;6775;49.574;11.170;2023-07-30T06:31:44;2.93;;;2.23;;
13408;SDS011;6775;49.574;11.170;2023-07-30T06:34:12;2.30;;;2.10;;
13408;SDS011;6775;49.574;11.170;2023-07-30T06:36:40;2.17;;;1.97;;
13408;SDS011;6775;49.574;11.170;2023-07-30T06:39:08;2.17;;;1.97;;
13408;SDS011;6775;49.574;11.170;2023-07-30T06:41:36;1.50;;;1.40;;
13408;SDS011;6775;49.574;11.170;2023-07-30T06:44:05;2.20;;;2.00;;
13408;SDS011;6775;49.574;11.170;2023-07-30T06:46:33;1.60;;;1.50;;
13408;SDS011;6775;49.574;11.170;2023-07-30T06:49:01;2.40;;;1.90;;
13408;SDS011;6775;49.574;11.170;2023-07-30T06:51:29;1.80;;;1.70;;
13408;SDS011;6775;49.574;11.170;2023-07-30T06:53:57;4.07;;;1.83;;
13408;SDS011;6775;49.574;11.170;2023-07-30T06:56:25;1.73;;;1.60;;
13408;SDS011;6775;49.574;11.170;2023-07-30T06:58:55;2.37;;;1.80;;
13408;SDS011;6775;49.574;11.170;2023-07-30T07:01:23;1.80;;;1.60;;
13408;SDS011;6775;49.574;11.170;2023-07-30T07:03:51;1.63;;;1.53;;
13408;SDS011;6775;49.574;11.170;2023-07-30T07:06:20;1.53;;;1.43;;
13408;SDS011;6775;49.574;11.170;2023-07-30T07:08:48;2.07;;;1.70;;
13408;SDS011;6775;49.574;11.170;2023-07-30T07:11:17;1.50;;;1.40;;
13408;SDS011;6775;49.574;11.170;2023-07-30T07:13:45;1.60;;;1.50;;
13408;SDS011;6775;49.574;11.170;2023-07-30T07:16:12;1.40;;;1.30;;
13408;SDS011;6775;49.574;11.170;2023-07-30T07:18:41;1.50;;;1.40;;
13408;SDS011;6775;49.574;11.170;2023-07-30T07:21:09;1.50;;;1.40;;
13408;SDS011;6775;49.574;11.170;2023-07-30T07:23:39;1.70;;;1.40;;
13408;SDS011;6775;49.574;11.170;2023-07-30T07:26:07;1.20;;;1.20;;
13408;SDS011;6775;49.574;11.170;2023-07-30T07:28:35;1.13;;;1.03;;
13408;SDS011;6775;49.574;11.170;2023-07-30T07:31:03;1.17;;;1.10;;
13408;SDS011;6775;49.574;11.170;2023-07-30T07:33:32;1.70;;;1.30;;
13408;SDS011;6775;49.574;11.170;2023-07-30T07:36:04;1.00;;;1.00;;
13408;SDS011;6775;49.574;11.170;2023-07-30T07:38:33;1.30;;;1.20;;
13408;SDS011;6775;49.574;11.170;2023-07-30T07:41:03;1.60;;;1.50;;
13408;SDS011;6775;49.574;11.170;2023-07-30T07:43:31;2.33;;;1.90;;
13408;SDS011;6775;49.574;11.170;2023-07-30T07:45:59;1.53;;;1.43;;
13408;SDS011;6775;49.574;11.170;2023-07-30T07:48:27;1.30;;;1.20;;
13408;SDS011;6775;49.574;11.170;2023-07-30T07:50:55;1.30;;;1.20;;
13408;SDS011;6775;49.574;11.170;2023-07-30T07:53:23;1.63;;;1.40;;
13408;SDS011;6775;49.574;11.170;2023-07-30T07:55:51;1.40;;;1.30;;
13408;SDS011;6775;49.574;11.170;2023-07-30T07:58:20;1.60;;;1.50;;
13408;SDS011;6775;49.574;11.170;2023-07-30T08:00:48;1.67;;;1.57;;
13408;SDS011;6775;49.574;11.170;2023-07-30T08:03:16;2.87;;;1.23;;
13408;SDS011;6775;49.574;11.170;2023-07-30T08:05:44;1.63;;;1.40;;
13408;SDS011;6775;49.574;11.170;2023-07-30T08:08:12;1.57;;;1.37;;
13408;SDS011;6775;49.574;11.170;2023-07-30T08:10:41;1.63;;;1.43;;
13408;SDS011;6775;49.574;11.170;2023-07-30T08:13:11;1.60;;;1.20;;
13408;SDS011;6775;49.574;11.170;2023-07-30T08:15:40;1.53;;;1.43;;
13408;SDS011;6775;49.574;11.170;2023-07-30T08:18:08;1.80;;;1.70;;
13408;SDS011;6775;49.574;11.170;2023-07-30T08:20:36;1.50;;;1.40;;
13408;SDS011;6775;49.574;11.170;2023-07-30T08:23:05;1.83;;;1.60;;
13408;SDS011;6775;49.574;11.170;2023-07-30T08:25:33;2.07;;;1.50;;
13408;SDS011;6775;49.574;11.170;2023-07-30T08:28:01;1.50;;;1.40;;
13408;SDS011;6775;49.574;11.170;2023-07-30T08:30:29;1.70;;;1.60;;
13408;SDS011;6775;49.574;11.170;2023-07-30T08:32:58;1.50;;;1.40;;
13408;SDS011;6775;49.574;11.170;2023-07-30T08:35:26;1.40;;;1.30;;
13408;SDS011;6775;49.574;11.170;2023-07-30T08:37:55;1.40;;;1.30;;
13408;SDS011;6775;49.574;11.170;2023-07-30T08:40:23;1.30;;;1.20;;
13408;SDS011;6775;49.574;11.170;2023-07-30T08:42:52;1.83;;;1.47;;
13408;SDS011;6775;49.574;11.170;2023-07-30T08:45:21;1.40;;;1.30;;
13408;SDS011;6775;49.574;11.170;2023-07-30T08:47:49;1.73;;;1.43;;
13408;SDS011;6775;49.574;11.170;2023-07-30T08:50:18;1.83;;;1.70;;
13408;SDS011;6775;49.574;11.170;2023-07-30T08:52:46;2.97;;;1.43;;
13408;SDS011;6775;49.574;11.170;2023-07-30T08:55:16;1.70;;;1.30;;
13408;SDS011;6775;49.574;11.170;2023-07-30T08:57:46;2.13;;;1.40;;
13408;SDS011;6775;49.574;11.170;2023-07-30T09:00:15;1.67;;;1.57;;
13408;SDS011;6775;49.574;11.170;2023-07-30T09:02:47;2.27;;;1.70;;
13408;SDS011;6775;49.574;11.170;2023-07-30T09:05:19;1.47;;;1.37;;
13408;SDS011;6775;49.574;11.170;2023-07-30T09:07:48;2.00;;;1.80;;
13408;SDS011;6775;49.574;11.170;2023-07-30T09:10:17;3.07;;;1.53;;
13408;SDS011;6775;49.574;11.170;2023-07-30T09:12:45;1.70;;;1.60;;
13408;SDS011;6775;49.574;11.170;2023-07-30T09:15:14;1.70;;;1.60;;
13408;SDS011;6775;49.574;11.170;2023-07-30T09:17:43;1.60;;;1.40;;
13408;SDS011;6775;49.574;11.170;2023-07-30T09:20:13;1.67;;;1.57;;
13408;SDS011;6775;49.574;11.170;2023-07-30T09:22:42;1.67;;;1.57;;
13408;SDS011;6775;49.574;11.170;2023-07-30T09:25:12;1.50;;;1.40;;
13408;SDS011;6775;49.574;11.170;2023-07-30T09:27:42;1.73;;;1.63;;
13408;SDS011;6775;49.574;11.170;2023-07-30T09:30:14;1.50;;;1.40;;
13408;SDS011;6775;49.574;11.170;2023-07-30T09:32:50;1.50;;;1.40;;
13408;SDS011;6775;49.574;11.170;2023-07-30T09:35:20;1.50;;;1.40;;
13408;SDS011;6775;49.574;11.170;2023-07-30T09:37:57;1.57;;;1.47;;
13408;SDS011;6775;49.574;11.170;2023-07-30T09:40:31;2.73;;;1.40;;
13408;SDS011;6775;49.574;11.170;2023-07-30T09:43:02;1.60;;;1.50;;
13408;SDS011;6775;49.574;11.170;2023-07-30T09:45:32;1.80;;;1.70;;
13408;SDS011;6775;49.574;11.170;2023-07-30T09:48:03;1.57;;;1.47;;
13408;SDS011;6775;49.574;11.170;2023-07-30T09:50:33;1.40;;;1.30;;
13408;SDS011;6775;49.574;11.170;2023-07-30T09:53:03;1.40;;;1.30;;
13408;SDS011;6775;49.574;11.170;2023-07-30T09:55:31;1.47;;;1.23;;
13408;SDS011;6775;49.574;11.170;2023-07-30T09:58:00;1.30;;;1.20;;
13408;SDS011;6775;49.574;11.170;2023-07-30T10:00:28;2.37;;;1.60;;
13408;SDS011;6775;49.574;11.170;2023-07-30T10:02:58;1.30;;;1.20;;
13408;SDS011;6775;49.574;11.170;2023-07-30T10:05:29;1.53;;;1.40;;
13408;SDS011;6775;49.574;11.170;2023-07-30T10:08:04;1.47;;;1.37;;
13408;SDS011;6775;49.574;11.170;2023-07-30T10:10:36;1.50;;;1.40;;
13408;SDS011;6775;49.574;11.170;2023-07-30T10:13:06;1.80;;;1.50;;
13408;SDS011;6775;49.574;11.170;2023-07-30T10:15:38;1.63;;;1.43;;
13408;SDS011;6775;49.574;11.170;2023-07-30T10:18:06;1.50;;;1.40;;
13408;SDS011;6775;49.574;11.170;2023-07-30T10:20:35;1.40;;;1.20;;
13408;SDS011;6775;49.574;11.170;2023-07-30T10:23:05;1.67;;;1.30;;
13408;SDS011;6775;49.574;11.170;2023-07-30T10:25:43;1.50;;;1.40;;
13408;SDS011;6775;49.574;11.170;2023-07-30T10:28:31;1.67;;;1.40;;
13408;SDS011;6775;49.574;11.170;2023-07-30T10:31:04;1.47;;;1.30;;
13408;SDS011;6775;49.574;11.170;2023-07-30T10:33:45;1.93;;;1.47;;
13408;SDS011;6775;49.574;11.170;2023-07-30T10:36:17;1.30;;;1.20;;
13408;SDS011;6775;49.574;11.170;2023-07-30T10:38:55;1.07;;;0.80;;
13408;SDS011;6775;49.574;11.170;2023-07-30T10:41:23;1.00;;;1.00;;
13408;SDS011;6775;49.574;11.170;2023-07-30T10:43:51;1.00;;;0.90;;
13408;SDS011;6775;49.574;11.170;2023-07-30T10:46:21;1.27;;;1.17;;
13408;SDS011;6775;49.574;11.170;2023-07-30T10:48:49;1.20;;;1.10;;
13408;SDS011;6775;49.574;11.170;2023-07-30T10:51:18;1.10;;;1.00;;
13408;SDS011;6775;49.574;11.170;2023-07-30T10:53:48;1.20;;;1.10;;
13408;SDS011;6775;49.574;11.170;2023-07-30T10:56:21;1.10;;;1.00;;
13408;SDS011;6775;49.574;11.170;2023-07-30T10:58:51;1.93;;;1.30;;
13408;SDS011;6775;49.574;11.170;2023-07-30T11:01:23;1.20;;;1.10;;
13408;SDS011;6775;49.574;11.170;2023-07-30T11:03:53;1.97;;;1.20;;
13408;SDS011;6775;49.574;11.170;2023-07-30T11:06:22;0.97;;;0.93;;
13408;SDS011;6775;49.574;11.170;2023-07-30T11:08:50;0.90;;;0.90;;
13408;SDS011;6775;49.574;11.170;2023-07-30T11:11:19;2.53;;;0.97;;
13408;SDS011;6775;49.574;11.170;2023-07-30T11:13:50;0.83;;;0.83;;
13408;SDS011;6775;49.574;11.170;2023-07-30T11:16:18;1.17;;;1.00;;
13408;SDS011;6775;49.574;11.170;2023-07-30T11:18:47;1.33;;;1.20;;
13408;SDS011;6775;49.574;11.170;2023-07-30T11:21:16;1.10;;;1.00;;
13408;SDS011;6775;49.574;11.170;2023-07-30T11:23:45;0.90;;;0.90;;
13408;SDS011;6775;49.574;11.170;2023-07-30T11:26:14;1.10;;;1.00;;
13408;SDS011;6775;49.574;11.170;2023-07-30T11:28:45;1.20;;;1.10;;
13408;SDS011;6775;49.574;11.170;2023-07-30T11:31:15;0.97;;;0.97;;
13408;SDS011;6775;49.574;11.170;2023-07-30T11:33:47;1.10;;;1.00;;
13408;SDS011;6775;49.574;11.170;2023-07-30T11:36:19;1.83;;;1.03;;
13408;SDS011;6775;49.574;11.170;2023-07-30T11:38:49;1.10;;;0.93;;
13408;SDS011;6775;49.574;11.170;2023-07-30T11:41:20;0.93;;;0.83;;
13408;SDS011;6775;49.574;11.170;2023-07-30T11:43:52;1.53;;;1.10;;
13408;SDS011;6775;49.574;11.170;2023-07-30T11:46:22;1.37;;;1.27;;
13408;SDS011;6775;49.574;11.170;2023-07-30T11:48:50;1.67;;;1.20;;
13408;SDS011;6775;49.574;11.170;2023-07-30T11:51:21;1.57;;;1.30;;
13408;SDS011;6775;49.574;11.170;2023-07-30T11:53:51;1.77;;;1.13;;
13408;SDS011;6775;49.574;11.170;2023-07-30T11:56:21;1.40;;;1.30;;
13408;SDS011;6775;49.574;11.170;2023-07-30T11:58:56;2.13;;;1.40;;
13408;SDS011;6775;49.574;11.170;2023-07-30T12:01:28;1.30;;;1.20;;
13408;SDS011;6775;49.574;11.170;2023-07-30T12:04:00;1.50;;;1.40;;
13408;SDS011;6775;49.574;11.170;2023-07-30T12:06:38;1.20;;;1.10;;
13408;SDS011;6775;49.574;11.170;2023-07-30T12:09:10;2.60;;;1.37;;
13408;SDS011;6775;49.574;11.170;2023-07-30T12:11:46;2.00;;;1.43;;
13408;SDS011;6775;49.574;11.170;2023-07-30T12:14:19;1.87;;;1.77;;
13408;SDS011;6775;49.574;11.170;2023-07-30T12:16:51;1.37;;;1.27;;
13408;SDS011;6775;49.574;11.170;2023-07-30T12:19:20;1.63;;;1.30;;
13408;SDS011;6775;49.574;11.170;2023-07-30T12:21:48;1.70;;;1.50;;
13408;SDS011;6775;49.574;11.170;2023-07-30T12:24:16;1.70;;;1.50;;
13408;SDS011;6775;49.574;11.170;2023-07-30T12:26:44;1.50;;;1.30;;
13408;SDS011;6775;49.574;11.170;2023-07-30T12:29:12;1.47;;;1.37;;
13408;SDS011;6775;49.574;11.170;2023-07-30T12:31:41;1.33;;;1.23;;
13408;SDS011;6775;49.574;11.170;2023-07-30T12:34:10;1.40;;;1.30;;
13408;SDS011;6775;49.574;11.170;2023-07-30T12:36:38;1.40;;;1.30;;
13408;SDS011;6775;49.574;11.170;2023-07-30T12:39:06;1.73;;;1.63;;
13408;SDS011;6775;49.574;11.170;2023-07-30T12:41:34;1.73;;;1.40;;
13408;SDS011;6775;49.574;11.170;2023-07-30T12:44:03;1.40;;;1.30;;
13408;SDS011;6775;49.574;11.170;2023-07-30T12:46:31;1.40;;;1.30;;
13408;SDS011;6775;49.574;11.170;2023-07-30T12:49:01;1.40;;;1.30;;
13408;SDS011;6775;49.574;11.170;2023-07-30T12:51:31;2.70;;;1.33;;
13408;SDS011;6775;49.574;11.170;2023-07-30T12:54:00;1.93;;;1.60;;
13408;SDS011;6775;49.574;11.170;2023-07-30T12:56:28;1.47;;;1.37;;
13408;SDS011;6775;49.574;11.170;2023-07-30T12:58:56;2.30;;;1.60;;
13408;SDS011;6775;49.574;11.170;2023-07-30T13:01:24;1.73;;;1.40;;
13408;SDS011;6775;49.574;11.170;2023-07-30T13:03:52;1.50;;;1.40;;
13408;SDS011;6775;49.574;11.170;2023-07-30T13:06:22;2.20;;;1.30;;
13408;SDS011;6775;49.574;11.170;2023-07-30T13:08:50;1.93;;;1.67;;
13408;SDS011;6775;49.574;11.170;2023-07-30T13:11:19;1.80;;;1.60;;
13408;SDS011;6775;49.574;11.170;2023-07-30T13:13:47;3.33;;;1.60;;
13408;SDS011;6775;49.574;11.170;2023-07-30T13:16:15;1.87;;;1.37;;
13408;SDS011;6775;49.574;11.170;2023-07-30T13:18:43;1.47;;;1.37;;
13408;SDS011;6775;49.574;11.170;2023-07-30T13:21:11;2.73;;;1.57;;
13408;SDS011;6775;49.574;11.170;2023-07-30T13:23:41;2.60;;;1.40;;
13408;SDS011;6775;49.574;11.170;2023-07-30T13:26:09;1.77;;;1.47;;
13408;SDS011;6775;49.574;11.170;2023-07-30T13:28:37;2.03;;;1.50;;
13408;SDS011;6775;49.574;11.170;2023-07-30T13:31:05;1.80;;;1.40;;
13408;SDS011;6775;49.574;11.170;2023-07-30T13:33:33;5.70;;;1.60;;
13408;SDS011;6775;49.574;11.170;2023-07-30T13:36:01;2.13;;;1.50;;
13408;SDS011;6775;49.574;11.170;2023-07-30T13:38:29;1.70;;;1.40;;
13408;SDS011;6775;49.574;11.170;2023-07-30T13:40:58;2.80;;;1.80;;
13408;SDS011;6775;49.574;11.170;2023-07-30T13:43:27;1.33;;;1.23;;
13408;SDS011;6775;49.574;11.170;2023-07-30T13:45:55;2.10;;;1.67;;
13408;SDS011;6775;49.574;11.170;2023-07-30T13:48:24;1.43;;;1.20;;
13408;SDS011;6775;49.574;11.170;2023-07-30T13:50:52;2.27;;;1.53;;
13408;SDS011;6775;49.574;11.170;2023-07-30T13:53:20;1.10;;;1.00;;
13408;SDS011;6775;49.574;11.170;2023-07-30T13:55:48;1.20;;;1.10;;
13408;SDS011;6775;49.574;11.170;2023-07-30T13:58:18;1.43;;;1.30;;
13408;SDS011;6775;49.574;11.170;2023-07-30T14:00:46;1.83;;;1.20;;
13408;SDS011;6775;49.574;11.170;2023-07-30T14:03:14;1.47;;;1.10;;
13408;SDS011;6775;49.574;11.170;2023-07-30T14:05:42;1.43;;;1.10;;
13408;SDS011;6775;49.574;11.170;2023-07-30T14:08:10;1.50;;;1.40;;
13408;SDS011;6775;49.574;11.170;2023-07-30T14:10:38;2.50;;;1.10;;
13408;SDS011;6775;49.574;11.170;2023-07-30T14:13:06;1.90;;;1.27;;
13408;SDS011;6775;49.574;11.170;2023-07-30T14:15:35;1.40;;;1.30;;
13408;SDS011;6775;49.574;11.170;2023-07-30T14:18:03;1.30;;;1.20;;
13408;SDS011;6775;49.574;11.170;2023-07-30T14:20:31;1.10;;;0.97;;
13408;SDS011;6775;49.574;11.170;2023-07-30T14:23:01;1.40;;;1.23;;
13408;SDS011;6775;49.574;11.170;2023-07-30T14:25:30;1.27;;;1.17;;
13408;SDS011;6775;49.574;11.170;2023-07-30T14:27:58;1.63;;;1.30;;
13408;SDS011;6775;49.574;11.170;2023-07-30T14:30:29;1.67;;;1.20;;
13408;SDS011;6775;49.574;11.170;2023-07-30T14:32:59;1.83;;;1.30;;
13408;SDS011;6775;49.574;11.170;2023-07-30T14:35:27;2.13;;;1.30;;
13408;SDS011;6775;49.574;11.170;2023-07-30T14:37:55;1.30;;;1.10;;
13408;SDS011;6775;49.574;11.170;2023-07-30T14:40:23;1.63;;;1.30;;
13408;SDS011;6775;49.574;11.170;2023-07-30T14:42:51;1.47;;;1.13;;
13408;SDS011;6775;49.574;11.170;2023-07-30T14:45:19;1.00;;;0.90;;
13408;SDS011;6775;49.574;11.170;2023-07-30T14:47:47;1.13;;;1.00;;
13408;SDS011;6775;49.574;11.170;2023-07-30T14:50:17;0.90;;;0.90;;
13408;SDS011;6775;49.574;11.170;2023-07-30T14:52:45;1.97;;;1.00;;
13408;SDS011;6775;49.574;11.170;2023-07-30T14:55:13;0.90;;;0.90;;
13408;SDS011;6775;49.574;11.170;2023-07-30T14:57:42;1.07;;;0.97;;